Hauptseite
METAR-TAF:

METAR-TAF

Flughäfen :

Rheine, Deutschland

Heeresflugplatz Rheine-Bentlage

Breite: 52-18N, Länge: 007-23E, Höhe: 40 m

Beobachtung

Neuester Wetterbericht von vor 20 Minuten, um 11:20 UTC
Wind 9 kt aus Ost/Nordost
Temperatur 12°C
Luftfeuchtigkeit 24%
Luftdruck 1031 hPa

METAR: ETHE 251120Z AUTO 06009KT //// // ////// 12/M08 Q1031 ///

Zeit: 12:40 (11:40 UTC)

Prognose

Neuester Wetterbericht von vor 25 Stunden und 16 Minuten, um 10:24 UTC
Gültige Prognose vom 24 um 09 UTC bis 24 um 18 UTC
Wind 10 kt aus Ost/Nordost, Böen bis zu 20 kt
Sichtweite: 1030 m
Aufgelockert bewölkt in der Höhe von 25000 ft

TAF: ETHE 241024Z 2409/2418 07010G20KT 9999 NSW SCT250 CANCEL 1030

Wetterbeobachtungen und Prognosen von mehr als 4000 Flughäfen (METAR und TAF Bericht).

Die verfügbaren Stationen werden durch gelbe und rote Markierungen auf der Karte dargestellt.

Führen Sie die Maus auf sie, um den Namen der Station zu sehen.

Darauf klicken, um die Beobachtung von Wetterbeobachtungen und Prognosen zu sehen.

Um die Karte zu ändern : klicken Sie auf den grünen Tasten mit einem schwarzen Kreuz Zum Vergrößern, auf den grünen Button mit einem Gedankenstrich zu verkleinern, oder auf die grünen Pfeile für benachbarte Karten.


METAR-TAF: